createdAt,value
2022-10-05T00:00:47.751Z,1012.56
2022-10-05T00:01:47.773Z,1012.54
2022-10-05T00:02:47.624Z,1012.53
2022-10-05T00:03:47.593Z,1012.47
2022-10-05T00:04:47.565Z,1012.46
2022-10-05T00:05:47.509Z,1012.45
2022-10-05T00:06:48.117Z,1012.43
2022-10-05T00:07:47.614Z,1012.39
2022-10-05T00:08:47.489Z,1012.40
2022-10-05T00:09:47.534Z,1012.37
2022-10-05T00:10:47.468Z,1012.38
2022-10-05T00:11:47.469Z,1012.34
2022-10-05T00:12:47.457Z,1012.30
2022-10-05T00:13:47.410Z,1012.31
2022-10-05T00:14:47.390Z,1012.31
2022-10-05T00:15:47.354Z,1012.31
2022-10-05T00:16:47.739Z,1012.30
2022-10-05T00:17:47.342Z,1012.25
2022-10-05T00:18:47.389Z,1012.24
2022-10-05T00:19:47.292Z,1012.24
2022-10-05T00:20:47.411Z,1012.23
2022-10-05T00:21:47.344Z,1012.24
2022-10-05T00:22:47.273Z,1012.22
2022-10-05T00:23:47.335Z,1012.24
2022-10-05T00:24:47.312Z,1012.23
2022-10-05T00:25:47.247Z,1012.22
2022-10-05T00:26:47.601Z,1012.20
2022-10-05T00:27:47.218Z,1012.17
2022-10-05T00:28:47.345Z,1012.21
2022-10-05T00:29:47.234Z,1012.12
2022-10-05T00:30:47.397Z,1012.14
2022-10-05T00:31:47.263Z,1012.14
2022-10-05T00:32:47.156Z,1012.18
2022-10-05T00:33:47.157Z,1012.16
2022-10-05T00:34:47.187Z,1012.23
2022-10-05T00:35:47.255Z,1012.22
2022-10-05T00:36:47.615Z,1012.22
2022-10-05T00:37:47.156Z,1012.20
2022-10-05T00:38:47.190Z,1012.21
2022-10-05T00:39:47.178Z,1012.26
2022-10-05T00:40:47.021Z,1012.23
2022-10-05T00:41:47.026Z,1012.24
2022-10-05T00:42:47.037Z,1012.24
2022-10-05T00:43:47.143Z,1012.24
2022-10-05T00:44:47.180Z,1012.23
2022-10-05T00:45:47.163Z,1012.22
2022-10-05T00:46:47.585Z,1012.21
2022-10-05T00:47:47.004Z,1012.23
2022-10-05T00:48:46.968Z,1012.21
2022-10-05T00:49:46.980Z,1012.23
2022-10-05T00:50:47.069Z,1012.22
2022-10-05T00:51:47.014Z,1012.23
2022-10-05T00:52:47.020Z,1012.20
2022-10-05T00:53:46.916Z,1012.19
2022-10-05T00:54:46.994Z,1012.16
2022-10-05T00:55:46.816Z,1012.18
2022-10-05T00:56:47.099Z,1012.18
2022-10-05T00:57:46.982Z,1012.16
2022-10-05T00:58:46.905Z,1012.12
2022-10-05T00:59:46.924Z,1012.17
2022-10-05T01:00:46.939Z,1012.12
2022-10-05T01:01:46.895Z,1012.12
2022-10-05T01:02:46.889Z,1012.07
2022-10-05T01:03:46.905Z,1012.01
2022-10-05T01:04:46.832Z,1012.04
2022-10-05T01:05:46.836Z,1012.05
2022-10-05T01:06:46.995Z,1011.98
2022-10-05T01:07:46.794Z,1012.02
2022-10-05T01:08:46.805Z,1012.05
2022-10-05T01:09:46.742Z,1012.00
2022-10-05T01:10:46.706Z,1012.06
2022-10-05T01:11:46.736Z,1012.03
2022-10-05T01:12:46.663Z,1012.06
2022-10-05T01:13:46.587Z,1012.03
2022-10-05T01:14:46.746Z,1012.00
2022-10-05T01:15:46.596Z,1012.01
2022-10-05T01:16:47.058Z,1012.01
2022-10-05T01:17:46.635Z,1012.00
2022-10-05T01:18:46.626Z,1011.97
2022-10-05T01:19:46.770Z,1011.91
2022-10-05T01:20:46.572Z,1011.95
2022-10-05T01:21:46.615Z,1011.93
2022-10-05T01:22:46.647Z,1011.95
2022-10-05T01:23:46.564Z,1011.90
2022-10-05T01:24:46.546Z,1011.92
2022-10-05T01:25:46.483Z,1011.89
2022-10-05T01:26:46.892Z,1011.89
2022-10-05T01:27:46.478Z,1011.86
2022-10-05T01:28:46.587Z,1011.86
2022-10-05T01:29:46.459Z,1011.84
2022-10-05T01:30:46.526Z,1011.83
2022-10-05T01:31:46.533Z,1011.81
2022-10-05T01:32:46.427Z,1011.84
2022-10-05T01:33:46.490Z,1011.83
2022-10-05T01:34:46.389Z,1011.86
2022-10-05T01:35:46.420Z,1011.84
2022-10-05T01:36:46.668Z,1011.83
2022-10-05T01:37:46.323Z,1011.87
2022-10-05T01:38:46.394Z,1011.87
2022-10-05T01:39:46.434Z,1011.86
2022-10-05T01:40:46.437Z,1011.88
2022-10-05T01:41:46.334Z,1011.84
2022-10-05T01:42:46.256Z,1011.81
2022-10-05T01:43:46.252Z,1011.82
2022-10-05T01:44:46.340Z,1011.80
2022-10-05T01:45:46.448Z,1011.79
2022-10-05T01:46:46.462Z,1011.77
2022-10-05T01:47:46.331Z,1011.75
2022-10-05T01:48:46.279Z,1011.76
2022-10-05T01:49:46.232Z,1011.74
2022-10-05T01:50:46.145Z,1011.70
2022-10-05T01:51:46.413Z,1011.71
2022-10-05T01:52:46.239Z,1011.68
2022-10-05T01:53:46.227Z,1011.61
2022-10-05T01:54:46.117Z,1011.66
2022-10-05T01:55:46.170Z,1011.67
2022-10-05T01:56:46.391Z,1011.61
2022-10-05T01:57:46.258Z,1011.60
2022-10-05T01:58:45.989Z,1011.63
2022-10-05T01:59:46.073Z,1011.57
2022-10-05T02:00:46.151Z,1011.64
2022-10-05T02:01:46.255Z,1011.64
2022-10-05T02:02:45.949Z,1011.62
2022-10-05T02:03:46.112Z,1011.64
2022-10-05T02:05:02.553Z,1011.64
2022-10-05T02:05:46.980Z,1011.69
2022-10-05T02:06:46.596Z,1011.69
2022-10-05T02:07:45.906Z,1011.67
2022-10-05T02:08:46.049Z,1011.66
2022-10-05T02:09:46.057Z,1011.68
2022-10-05T02:10:45.843Z,1011.68
2022-10-05T02:11:45.954Z,1011.65
2022-10-05T02:12:46.000Z,1011.69
2022-10-05T02:13:46.115Z,1011.68
2022-10-05T02:14:45.852Z,1011.66
2022-10-05T02:15:45.956Z,1011.66
2022-10-05T02:16:46.342Z,1011.61
2022-10-05T02:17:45.949Z,1011.67
2022-10-05T02:18:45.792Z,1011.62
2022-10-05T02:19:45.968Z,1011.65
2022-10-05T02:20:45.799Z,1011.66
2022-10-05T02:21:45.801Z,1011.64
2022-10-05T02:22:45.854Z,1011.64
2022-10-05T02:23:45.727Z,1011.63
2022-10-05T02:24:45.793Z,1011.67
2022-10-05T02:25:45.824Z,1011.69
2022-10-05T02:26:45.928Z,1011.72
2022-10-05T02:27:45.751Z,1011.70
2022-10-05T02:28:45.645Z,1011.72
2022-10-05T02:29:45.761Z,1011.72
2022-10-05T02:30:45.776Z,1011.69
2022-10-05T02:31:45.766Z,1011.71
2022-10-05T02:32:45.728Z,1011.67
2022-10-05T02:33:45.779Z,1011.65
2022-10-05T02:34:45.646Z,1011.66
2022-10-05T02:35:45.699Z,1011.63
2022-10-05T02:36:45.962Z,1011.66
2022-10-05T02:37:45.696Z,1011.60
2022-10-05T02:38:45.608Z,1011.59
2022-10-05T02:39:45.759Z,1011.56
2022-10-05T02:40:45.515Z,1011.51
2022-10-05T02:41:45.737Z,1011.52
2022-10-05T02:42:45.536Z,1011.47
2022-10-05T02:43:45.506Z,1011.47
2022-10-05T02:44:45.368Z,1011.42
2022-10-05T02:45:45.477Z,1011.40
2022-10-05T02:46:45.691Z,1011.36
2022-10-05T02:47:45.506Z,1011.35
2022-10-05T02:48:45.434Z,1011.34
2022-10-05T02:49:45.569Z,1011.27
2022-10-05T02:50:45.428Z,1011.28
2022-10-05T02:51:45.377Z,1011.27
2022-10-05T02:52:45.412Z,1011.23
2022-10-05T02:53:45.339Z,1011.22
2022-10-05T02:54:45.441Z,1011.17
2022-10-05T02:55:45.381Z,1011.18
2022-10-05T02:56:45.668Z,1011.15
2022-10-05T02:57:45.350Z,1011.16
2022-10-05T02:58:45.309Z,1011.10
2022-10-05T02:59:45.351Z,1011.08
2022-10-05T03:00:45.366Z,1011.08
2022-10-05T03:01:45.299Z,1011.09
2022-10-05T03:02:45.346Z,1011.07
2022-10-05T03:03:45.496Z,1011.07
2022-10-05T03:04:45.251Z,1011.04
2022-10-05T03:05:45.243Z,1011.03
2022-10-05T03:06:45.503Z,1011.05
2022-10-05T03:07:45.166Z,1011.03
2022-10-05T03:08:45.301Z,1011.01
2022-10-05T03:09:45.228Z,1010.99
2022-10-05T03:10:45.142Z,1010.99
2022-10-05T03:11:45.152Z,1010.97
2022-10-05T03:12:45.238Z,1010.98
2022-10-05T03:13:45.152Z,1010.97
2022-10-05T03:14:44.988Z,1010.96
2022-10-05T03:15:45.218Z,1010.97
2022-10-05T03:16:45.217Z,1010.94
2022-10-05T03:17:45.131Z,1010.96
2022-10-05T03:18:45.083Z,1010.94
2022-10-05T03:19:45.108Z,1010.94
2022-10-05T03:20:45.093Z,1010.96
2022-10-05T03:21:45.154Z,1010.90
2022-10-05T03:22:44.945Z,1010.86
2022-10-05T03:23:44.946Z,1010.85
2022-10-05T03:24:44.905Z,1010.79
2022-10-05T03:25:44.951Z,1010.79
2022-10-05T03:26:45.304Z,1010.76
2022-10-05T03:27:44.923Z,1010.75
2022-10-05T03:28:44.886Z,1010.73
2022-10-05T03:29:44.835Z,1010.71
2022-10-05T03:30:45.205Z,1010.73
2022-10-05T03:31:45.014Z,1010.70
2022-10-05T03:32:44.832Z,1010.68
2022-10-05T03:33:44.843Z,1010.67
2022-10-05T03:34:45.045Z,1010.64
2022-10-05T03:35:44.862Z,1010.63
2022-10-05T03:36:45.041Z,1010.62
2022-10-05T03:37:44.843Z,1010.58
2022-10-05T03:38:44.963Z,1010.64
2022-10-05T03:39:44.811Z,1010.60
2022-10-05T03:40:44.984Z,1010.63
2022-10-05T03:41:44.835Z,1010.65
2022-10-05T03:42:44.699Z,1010.62
2022-10-05T03:43:44.952Z,1010.63
2022-10-05T03:44:44.724Z,1010.60
2022-10-05T03:45:44.674Z,1010.61
2022-10-05T03:46:45.068Z,1010.57
2022-10-05T03:47:44.656Z,1010.55
2022-10-05T03:48:44.725Z,1010.57
2022-10-05T03:49:44.586Z,1010.55
2022-10-05T03:50:44.745Z,1010.58
2022-10-05T03:51:44.672Z,1010.55
2022-10-05T03:52:44.528Z,1010.60
2022-10-05T03:53:44.739Z,1010.54
2022-10-05T03:54:44.590Z,1010.54
2022-10-05T03:55:44.542Z,1010.54
2022-10-05T03:56:44.796Z,1010.44
2022-10-05T03:57:44.526Z,1010.49
2022-10-05T03:58:44.670Z,1010.50
2022-10-05T03:59:44.557Z,1010.49
2022-10-05T04:00:44.583Z,1010.47
2022-10-05T04:01:44.581Z,1010.45
2022-10-05T04:02:44.577Z,1010.39
2022-10-05T04:03:44.448Z,1010.42
2022-10-05T04:04:44.504Z,1010.36
2022-10-05T04:05:44.440Z,1010.34
2022-10-05T04:06:44.756Z,1010.39
2022-10-05T04:07:44.449Z,1010.39
2022-10-05T04:08:47.871Z,1010.39
2022-10-05T04:09:44.378Z,1010.37
2022-10-05T04:10:44.454Z,1010.35
2022-10-05T04:11:44.302Z,1010.38
2022-10-05T04:12:46.020Z,1010.32
2022-10-05T04:13:44.442Z,1010.35
2022-10-05T04:14:44.524Z,1010.36
2022-10-05T04:15:44.427Z,1010.37
2022-10-05T04:16:44.772Z,1010.43
2022-10-05T04:17:44.418Z,1010.41
2022-10-05T04:18:44.470Z,1010.38
2022-10-05T04:19:44.267Z,1010.39
2022-10-05T04:20:44.963Z,1010.43
2022-10-05T04:21:44.358Z,1010.42
2022-10-05T04:22:44.255Z,1010.49
2022-10-05T04:23:44.241Z,1010.51
2022-10-05T04:24:44.274Z,1010.52
2022-10-05T04:25:44.147Z,1010.51
2022-10-05T04:26:44.390Z,1010.50
2022-10-05T04:27:44.163Z,1010.50
2022-10-05T04:28:44.647Z,1010.58
2022-10-05T04:29:45.288Z,1010.55
2022-10-05T04:30:44.327Z,1010.62
2022-10-05T04:31:44.337Z,1010.67
2022-10-05T04:32:44.001Z,1010.65
2022-10-05T04:33:44.248Z,1010.64
2022-10-05T04:34:44.248Z,1010.65
2022-10-05T04:35:44.115Z,1010.67
2022-10-05T04:36:44.679Z,1010.63
2022-10-05T04:37:46.464Z,1010.66
2022-10-05T04:38:44.005Z,1010.64
2022-10-05T04:39:44.061Z,1010.62
2022-10-05T04:40:44.039Z,1010.62
2022-10-05T04:41:43.896Z,1010.64
2022-10-05T04:42:44.013Z,1010.59
2022-10-05T04:43:43.968Z,1010.60
2022-10-05T04:44:43.919Z,1010.59
2022-10-05T04:45:43.887Z,1010.60
2022-10-05T04:46:44.098Z,1010.59
2022-10-05T04:47:44.040Z,1010.54
2022-10-05T04:48:45.383Z,1010.55
2022-10-05T04:49:43.836Z,1010.55
2022-10-05T04:50:43.870Z,1010.53
2022-10-05T04:51:47.641Z,1010.53
2022-10-05T04:52:44.910Z,1010.55
2022-10-05T04:53:43.795Z,1010.52
2022-10-05T04:54:43.865Z,1010.54
2022-10-05T04:55:43.823Z,1010.52
2022-10-05T04:56:44.195Z,1010.50
2022-10-05T04:57:43.800Z,1010.59
2022-10-05T04:58:43.696Z,1010.55
2022-10-05T04:59:43.745Z,1010.54
2022-10-05T05:00:43.714Z,1010.55
2022-10-05T05:01:43.863Z,1010.58
2022-10-05T05:02:43.861Z,1010.56
2022-10-05T05:03:43.771Z,1010.57
2022-10-05T05:04:46.206Z,1010.57
2022-10-05T05:06:05.016Z,1010.56
2022-10-05T05:06:45.222Z,1010.61
2022-10-05T05:07:43.740Z,1010.54
2022-10-05T05:08:43.668Z,1010.52
2022-10-05T05:09:43.613Z,1010.56
2022-10-05T05:10:43.783Z,1010.56
2022-10-05T05:11:43.590Z,1010.53
2022-10-05T05:12:49.694Z,1010.55
2022-10-05T05:13:43.692Z,1010.50
2022-10-05T05:14:44.025Z,1010.54
2022-10-05T05:15:43.551Z,1010.54
2022-10-05T05:16:47.453Z,1010.49
2022-10-05T05:17:43.446Z,1010.46
2022-10-05T05:18:43.566Z,1010.44
2022-10-05T05:19:43.620Z,1010.43
2022-10-05T05:20:43.691Z,1010.41
2022-10-05T05:21:43.528Z,1010.43
2022-10-05T05:22:43.396Z,1010.40
2022-10-05T05:23:43.446Z,1010.39
2022-10-05T05:24:44.434Z,1010.38
2022-10-05T05:25:43.525Z,1010.46
2022-10-05T05:26:43.616Z,1010.45
2022-10-05T05:27:43.542Z,1010.43
2022-10-05T05:28:43.743Z,1010.47
2022-10-05T05:29:43.622Z,1010.44
2022-10-05T05:32:04.690Z,1010.45
2022-10-05T05:33:04.504Z,1010.44
2022-10-05T05:34:04.124Z,1010.47
2022-10-05T05:35:03.866Z,1010.49
2022-10-05T05:36:03.753Z,1010.51
2022-10-05T05:37:03.735Z,1010.49
2022-10-05T05:38:04.592Z,1010.49
2022-10-05T05:39:04.164Z,1010.49
2022-10-05T05:40:03.683Z,1010.49
2022-10-05T05:41:03.763Z,1010.53
2022-10-05T05:42:03.708Z,1010.55
2022-10-05T05:43:03.745Z,1010.45
2022-10-05T05:44:03.624Z,1010.43
2022-10-05T05:45:04.308Z,1010.46
2022-10-05T05:46:03.624Z,1010.47
2022-10-05T05:47:06.522Z,1010.49
2022-10-05T05:48:03.999Z,1010.44
2022-10-05T05:49:03.635Z,1010.49
2022-10-05T05:50:07.302Z,1010.44
2022-10-05T05:51:03.587Z,1010.48
2022-10-05T05:52:04.390Z,1010.43
2022-10-05T05:53:04.119Z,1010.47
2022-10-05T05:54:03.569Z,1010.47
2022-10-05T05:55:04.502Z,1010.47
2022-10-05T05:56:03.482Z,1010.47
2022-10-05T05:57:03.592Z,1010.48
2022-10-05T05:58:04.079Z,1010.54
2022-10-05T05:59:04.364Z,1010.49
2022-10-05T06:00:03.396Z,1010.50
2022-10-05T06:01:03.565Z,1010.49
2022-10-05T06:02:03.580Z,1010.50
2022-10-05T06:03:03.490Z,1010.48
2022-10-05T06:04:03.479Z,1010.48
2022-10-05T06:05:14.273Z,1010.46
2022-10-05T06:06:05.050Z,1010.47
2022-10-05T06:07:04.253Z,1010.46
2022-10-05T06:08:10.824Z,1010.48
2022-10-05T06:09:06.852Z,1010.46
2022-10-05T06:10:03.283Z,1010.49
2022-10-05T06:11:03.271Z,1010.45
2022-10-05T06:12:03.476Z,1010.50
2022-10-05T06:13:08.579Z,1010.44
2022-10-05T06:14:15.289Z,1010.48
2022-10-05T06:15:08.232Z,1010.45
2022-10-05T06:16:04.775Z,1010.46
2022-10-05T06:23:30.147Z,1010.41
2022-10-05T06:23:59.391Z,1010.39
2022-10-05T06:30:11.680Z,1010.48
2022-10-05T06:33:40.912Z,1010.48
2022-10-05T06:34:42.229Z,1010.46
2022-10-05T06:35:47.377Z,1010.50
2022-10-05T06:36:40.608Z,1010.45
2022-10-05T06:42:33.507Z,1010.53
2022-10-05T06:43:17.443Z,1010.45
2022-10-05T06:44:16.894Z,1010.50
2022-10-05T06:46:38.534Z,1010.49
2022-10-05T06:47:46.147Z,1010.46
2022-10-05T06:50:11.272Z,1010.46
2022-10-05T06:51:24.619Z,1010.48
2022-10-05T06:52:08.260Z,1010.46
2022-10-05T06:54:27.556Z,1010.46
2022-10-05T06:55:26.798Z,1010.49
2022-10-05T06:56:31.452Z,1010.50
2022-10-05T06:57:25.093Z,1010.45
2022-10-05T06:58:24.576Z,1010.46
2022-10-05T06:59:27.191Z,1010.47
2022-10-05T07:00:25.108Z,1010.49
2022-10-05T07:01:28.308Z,1010.47
2022-10-05T07:02:25.408Z,1010.45
2022-10-05T07:03:29.148Z,1010.43
2022-10-05T07:04:26.177Z,1010.41
2022-10-05T07:05:31.751Z,1010.41
2022-10-05T07:06:28.263Z,1010.41
2022-10-05T07:07:25.883Z,1010.41
2022-10-05T07:08:25.619Z,1010.46
2022-10-05T07:09:31.187Z,1010.42
2022-10-05T07:10:32.587Z,1010.42
2022-10-05T07:11:27.287Z,1010.41
2022-10-05T07:12:25.383Z,1010.42
2022-10-05T07:13:32.959Z,1010.36
2022-10-05T07:14:38.179Z,1010.41
2022-10-05T07:15:25.156Z,1010.39
2022-10-05T07:16:27.541Z,1010.44
2022-10-05T07:17:29.929Z,1010.44
2022-10-05T07:18:24.144Z,1010.42
2022-10-05T07:21:14.573Z,1010.38
2022-10-05T07:21:59.469Z,1010.48
2022-10-05T07:22:58.967Z,1010.38
2022-10-05T07:24:02.407Z,1010.44
2022-10-05T07:25:01.098Z,1010.42
2022-10-05T07:26:04.586Z,1010.39
2022-10-05T07:26:58.606Z,1010.46
2022-10-05T07:27:59.770Z,1010.48
2022-10-05T07:29:02.244Z,1010.44
2022-10-05T07:29:59.004Z,1010.43
2022-10-05T07:32:59.931Z,1010.48
2022-10-05T07:35:34.983Z,1010.53
2022-10-05T07:36:30.791Z,1010.50
2022-10-05T07:38:53.391Z,1010.55
2022-10-05T07:40:00.631Z,1010.56
2022-10-05T07:40:54.365Z,1010.56
2022-10-05T07:41:52.972Z,1010.60
2022-10-05T07:42:52.403Z,1010.58
2022-10-05T07:44:02.364Z,1010.58
2022-10-05T07:44:51.962Z,1010.64
2022-10-05T07:45:50.544Z,1010.63
2022-10-05T07:46:50.936Z,1010.64
2022-10-05T07:47:51.068Z,1010.63
2022-10-05T07:48:53.870Z,1010.68
2022-10-05T07:50:11.721Z,1010.66
2022-10-05T07:50:50.395Z,1010.69
2022-10-05T07:51:50.470Z,1010.70
2022-10-05T07:52:53.799Z,1010.64
2022-10-05T07:53:50.208Z,1010.66
2022-10-05T07:56:57.987Z,1010.62
2022-10-05T07:58:12.330Z,1010.66
2022-10-05T08:01:03.063Z,1010.69
2022-10-05T08:08:40.880Z,1010.80
2022-10-05T08:11:34.724Z,1010.79
2022-10-05T08:15:08.998Z,1010.81
2022-10-05T08:18:36.473Z,1010.83
2022-10-05T08:18:57.743Z,1010.73
2022-10-05T08:19:55.580Z,1010.78
2022-10-05T08:20:54.116Z,1010.75
2022-10-05T08:21:52.578Z,1010.77
2022-10-05T08:23:04.358Z,1010.76
2022-10-05T08:26:03.073Z,1010.77
2022-10-05T08:27:01.380Z,1010.70
2022-10-05T08:28:03.389Z,1010.72
2022-10-05T08:34:28.624Z,1010.69
2022-10-05T08:35:19.107Z,1010.70
2022-10-05T08:36:13.954Z,1010.66
2022-10-05T08:37:15.417Z,1010.66
2022-10-05T08:38:15.415Z,1010.68
2022-10-05T08:43:01.388Z,1010.61
2022-10-05T08:55:18.222Z,1010.61
2022-10-05T09:05:43.118Z,1010.58
2022-10-05T09:06:43.582Z,1010.60
2022-10-05T09:12:07.435Z,1010.58
2022-10-05T09:12:54.408Z,1010.58
2022-10-05T09:15:38.583Z,1010.58
2022-10-05T09:17:08.894Z,1010.55
2022-10-05T09:17:49.427Z,1010.50
2022-10-05T09:20:19.909Z,1010.48
2022-10-05T09:20:52.414Z,1010.42
2022-10-05T09:21:51.151Z,1010.49
2022-10-05T09:22:52.451Z,1010.47
2022-10-05T09:23:54.131Z,1010.46
2022-10-05T09:26:25.035Z,1010.45
2022-10-05T09:31:57.738Z,1010.48
2022-10-05T09:32:50.192Z,1010.50
2022-10-05T09:35:34.847Z,1010.51
2022-10-05T09:35:59.934Z,1010.38
2022-10-05T09:36:59.612Z,1010.41
2022-10-05T09:38:01.805Z,1010.38
2022-10-05T09:38:59.997Z,1010.42
2022-10-05T09:40:01.483Z,1010.42
2022-10-05T09:43:24.741Z,1010.38
2022-10-05T09:45:51.757Z,1010.37
2022-10-05T09:46:51.082Z,1010.32
2022-10-05T09:47:51.191Z,1010.35
2022-10-05T09:48:51.404Z,1010.37
2022-10-05T09:50:12.112Z,1010.32
2022-10-05T09:50:50.902Z,1010.36
2022-10-05T09:51:52.190Z,1010.32
2022-10-05T09:52:51.085Z,1010.28
2022-10-05T09:55:15.058Z,1010.23
2022-10-05T09:56:00.168Z,1010.24
2022-10-05T09:56:59.742Z,1010.19
2022-10-05T09:58:00.613Z,1010.22
2022-10-05T09:59:05.211Z,1010.26
2022-10-05T09:59:58.914Z,1010.24
2022-10-05T10:01:09.239Z,1010.19
2022-10-05T10:02:06.574Z,1010.23
2022-10-05T10:02:59.820Z,1010.23
2022-10-05T10:03:58.371Z,1010.20
2022-10-05T10:04:58.692Z,1010.15
2022-10-05T10:09:08.501Z,1010.12
2022-10-05T10:12:43.641Z,1010.13
2022-10-05T10:13:34.970Z,1010.07
2022-10-05T10:19:09.490Z,1010.04
2022-10-05T10:20:07.138Z,1010.05
2022-10-05T10:21:08.436Z,1010.11
2022-10-05T10:22:11.342Z,1010.03
2022-10-05T10:23:10.433Z,1010.00
2022-10-05T10:24:09.405Z,1009.99
2022-10-05T10:25:06.952Z,1010.05
2022-10-05T10:26:10.502Z,1010.00
2022-10-05T10:27:22.716Z,1010.02
2022-10-05T10:28:25.315Z,1010.04
2022-10-05T10:29:08.684Z,1010.01
2022-10-05T10:30:07.252Z,1009.94
2022-10-05T10:31:14.231Z,1009.94
2022-10-05T10:32:28.358Z,1009.94
2022-10-05T10:33:07.436Z,1009.93
2022-10-05T10:34:08.749Z,1010.01
2022-10-05T10:35:07.095Z,1009.92
2022-10-05T10:36:07.215Z,1009.99
2022-10-05T10:37:07.154Z,1010.02
2022-10-05T10:38:09.416Z,1010.00
2022-10-05T10:39:06.239Z,1010.01
2022-10-05T10:40:07.422Z,1009.99
2022-10-05T10:41:06.771Z,1009.92
2022-10-05T10:42:05.861Z,1009.94
2022-10-05T10:43:06.607Z,1009.97
2022-10-05T10:44:07.892Z,1009.93
2022-10-05T10:45:06.587Z,1009.89
2022-10-05T10:46:07.616Z,1009.87
2022-10-05T10:47:08.404Z,1009.87
2022-10-05T10:48:15.312Z,1009.87
2022-10-05T10:49:32.418Z,1009.89
2022-10-05T10:50:09.471Z,1009.89
2022-10-05T10:51:05.841Z,1009.93
2022-10-05T10:53:29.975Z,1009.85
2022-10-05T10:54:50.248Z,1009.86
2022-10-05T10:55:29.104Z,1009.86
2022-10-05T10:56:35.472Z,1009.88
2022-10-05T10:57:33.465Z,1009.84
2022-10-05T10:58:38.594Z,1009.77
2022-10-05T10:59:31.584Z,1009.83
2022-10-05T11:00:30.639Z,1009.79
2022-10-05T11:01:29.426Z,1009.81
2022-10-05T11:02:32.020Z,1009.70
2022-10-05T11:03:34.963Z,1009.82
2022-10-05T11:04:51.040Z,1009.81
2022-10-05T11:05:31.457Z,1009.75
2022-10-05T11:06:30.859Z,1009.80
2022-10-05T11:07:29.050Z,1009.70
2022-10-05T11:08:31.567Z,1009.72
2022-10-05T11:09:28.491Z,1009.78
2022-10-05T11:10:30.945Z,1009.72
2022-10-05T11:11:28.682Z,1009.75
2022-10-05T11:12:33.513Z,1009.74
2022-10-05T11:13:31.075Z,1009.68
2022-10-05T11:14:30.666Z,1009.73
2022-10-05T11:15:30.872Z,1009.69
2022-10-05T11:18:30.191Z,1009.72
2022-10-05T11:19:13.154Z,1009.66
2022-10-05T11:20:11.830Z,1009.64
2022-10-05T11:22:45.479Z,1009.60
2022-10-05T11:23:41.646Z,1009.55
2022-10-05T11:24:40.827Z,1009.57
2022-10-05T11:25:40.698Z,1009.50
2022-10-05T11:26:41.988Z,1009.46
2022-10-05T11:27:39.324Z,1009.51
2022-10-05T11:29:33.443Z,1009.44
2022-10-05T11:30:30.999Z,1009.50
2022-10-05T11:31:30.773Z,1009.40
2022-10-05T11:32:30.329Z,1009.35
2022-10-05T11:33:29.716Z,1009.26
2022-10-05T11:34:33.258Z,1009.29
2022-10-05T11:35:32.455Z,1009.21
2022-10-05T11:36:31.770Z,1009.27
2022-10-05T11:41:32.565Z,1009.18
2022-10-05T11:42:31.521Z,1009.10
2022-10-05T11:43:30.531Z,1009.10
2022-10-05T11:44:30.751Z,1009.05
2022-10-05T11:45:31.724Z,1009.00
2022-10-05T11:46:28.470Z,1009.04
2022-10-05T11:47:30.612Z,1009.08
2022-10-05T11:48:30.069Z,1009.00
2022-10-05T11:51:52.967Z,1008.94
2022-10-05T11:52:41.587Z,1008.91
2022-10-05T11:53:46.792Z,1008.97
2022-10-05T11:55:05.752Z,1008.85
2022-10-05T11:55:46.262Z,1008.86
2022-10-05T11:56:50.722Z,1008.87
2022-10-05T11:57:45.931Z,1008.82
2022-10-05T11:58:47.132Z,1008.83
2022-10-05T11:59:41.424Z,1008.71
2022-10-05T12:00:41.403Z,1008.77
2022-10-05T12:01:41.199Z,1008.64
2022-10-05T12:02:43.074Z,1008.62
2022-10-05T12:03:40.672Z,1008.66
2022-10-05T12:04:40.765Z,1008.67
2022-10-05T12:05:41.448Z,1008.63
2022-10-05T12:06:40.947Z,1008.69
2022-10-05T12:07:43.532Z,1008.62
2022-10-05T12:08:45.150Z,1008.64
2022-10-05T12:09:41.681Z,1008.60
2022-10-05T12:10:42.336Z,1008.68
2022-10-05T12:11:41.475Z,1008.48
2022-10-05T12:12:43.118Z,1008.51
2022-10-05T12:13:43.222Z,1008.58
2022-10-05T12:14:40.408Z,1008.48
2022-10-05T12:15:40.810Z,1008.50
2022-10-05T12:16:43.235Z,1008.57
2022-10-05T12:17:40.687Z,1008.37
2022-10-05T12:18:45.350Z,1008.42
2022-10-05T12:19:43.837Z,1008.41
2022-10-05T12:20:41.434Z,1008.49
2022-10-05T12:21:40.457Z,1008.41
2022-10-05T12:22:40.438Z,1008.37
2022-10-05T12:23:43.200Z,1008.41
2022-10-05T12:24:41.972Z,1008.35
2022-10-05T12:25:40.683Z,1008.34
2022-10-05T12:26:43.855Z,1008.37
2022-10-05T12:27:40.636Z,1008.36
2022-10-05T12:28:42.424Z,1008.42
2022-10-05T12:29:40.079Z,1008.31
2022-10-05T12:30:42.744Z,1008.35
2022-10-05T12:31:43.850Z,1008.38
2022-10-05T12:32:40.561Z,1008.24
2022-10-05T12:33:41.998Z,1008.27
2022-10-05T12:34:40.909Z,1008.28
2022-10-05T12:35:48.543Z,1008.29
2022-10-05T12:37:03.119Z,1008.21
2022-10-05T12:37:43.611Z,1008.21
2022-10-05T12:38:40.675Z,1008.30
2022-10-05T12:39:41.323Z,1008.24
2022-10-05T12:40:41.584Z,1008.19
2022-10-05T12:41:42.870Z,1008.17
2022-10-05T12:42:41.882Z,1008.19
2022-10-05T12:43:41.974Z,1008.16
2022-10-05T12:44:42.412Z,1008.14
2022-10-05T12:45:41.308Z,1008.17
2022-10-05T12:46:41.620Z,1008.18
2022-10-05T12:47:40.933Z,1008.10
2022-10-05T12:48:40.826Z,1008.07
2022-10-05T12:49:40.373Z,1008.18
2022-10-05T12:50:42.275Z,1008.18
2022-10-05T12:51:41.059Z,1008.09
2022-10-05T12:52:40.817Z,1008.07
2022-10-05T12:53:40.932Z,1008.18
2022-10-05T12:54:41.038Z,1008.14
2022-10-05T12:55:41.818Z,1008.09
2022-10-05T12:56:43.816Z,1008.14
2022-10-05T12:57:42.074Z,1008.11
2022-10-05T12:58:40.884Z,1008.09
2022-10-05T12:59:43.523Z,1008.09
2022-10-05T13:00:41.694Z,1008.08
2022-10-05T13:01:40.062Z,1008.08
2022-10-05T13:02:40.624Z,1008.12
2022-10-05T13:03:42.111Z,1008.07
2022-10-05T13:04:40.977Z,1008.07
2022-10-05T13:05:40.982Z,1008.12
2022-10-05T13:06:40.740Z,1008.13
2022-10-05T13:07:39.744Z,1008.06
2022-10-05T13:08:39.634Z,1008.10
2022-10-05T13:09:40.840Z,1007.99
2022-10-05T13:10:41.854Z,1008.09
2022-10-05T13:11:41.576Z,1008.08
2022-10-05T13:12:40.471Z,1008.01
2022-10-05T13:13:41.650Z,1008.02
2022-10-05T13:14:40.755Z,1008.03
2022-10-05T13:15:40.135Z,1008.10
2022-10-05T13:16:40.277Z,1008.10
2022-10-05T13:17:40.235Z,1008.11
2022-10-05T13:18:40.057Z,1008.03
2022-10-05T13:19:42.290Z,1008.04
2022-10-05T13:20:40.103Z,1007.97
2022-10-05T13:21:41.208Z,1008.02
2022-10-05T13:22:41.140Z,1008.03
2022-10-05T13:23:39.928Z,1007.93
2022-10-05T13:24:39.399Z,1007.97
2022-10-05T13:25:40.534Z,1007.92
2022-10-05T13:26:39.698Z,1007.96
2022-10-05T13:27:39.732Z,1007.91
2022-10-05T13:28:43.078Z,1007.93
2022-10-05T13:29:40.743Z,1007.93
2022-10-05T13:30:39.353Z,1007.88
2022-10-05T13:31:42.342Z,1007.89
2022-10-05T13:32:39.367Z,1007.82
2022-10-05T13:33:41.903Z,1007.86
2022-10-05T13:35:11.245Z,1007.80
2022-10-05T13:35:42.330Z,1007.81
2022-10-05T13:36:39.868Z,1007.77
2022-10-05T13:37:43.784Z,1007.79
2022-10-05T13:38:41.334Z,1007.75
2022-10-05T13:39:43.911Z,1007.75
2022-10-05T13:40:42.129Z,1007.85
2022-10-05T13:41:42.899Z,1007.76
2022-10-05T13:42:39.222Z,1007.72
2022-10-05T13:43:41.226Z,1007.79
2022-10-05T13:44:45.160Z,1007.67
2022-10-05T13:46:06.914Z,1007.72
2022-10-05T13:46:40.889Z,1007.72
2022-10-05T13:47:39.656Z,1007.70
2022-10-05T13:48:40.898Z,1007.76
2022-10-05T13:49:39.161Z,1007.69
2022-10-05T13:50:39.565Z,1007.68
2022-10-05T13:51:41.600Z,1007.67
2022-10-05T13:52:42.319Z,1007.66
2022-10-05T13:53:40.488Z,1007.61
2022-10-05T13:54:40.765Z,1007.68
2022-10-05T13:55:39.208Z,1007.64
2022-10-05T13:56:40.750Z,1007.61
2022-10-05T13:57:41.837Z,1007.65
2022-10-05T13:58:40.883Z,1007.62
2022-10-05T13:59:40.242Z,1007.58
2022-10-05T14:00:39.104Z,1007.68
2022-10-05T14:01:41.107Z,1007.67
2022-10-05T14:02:40.907Z,1007.65
2022-10-05T14:03:39.779Z,1007.68
2022-10-05T14:04:42.640Z,1007.62
2022-10-05T14:05:41.889Z,1007.69